Tuesday, January 15, 2019, 6:31 PM EST
Back to Local

KAVP, Wilkes-barre/scranton International

Location: Pittston, PA, United States Lat: 41.333
Local Time: 6:31 PM EST (23:31 GMT) Lon: -75.733
Time Zone: US/Eastern Elev: 961 ft

Show me the last for .
Show Decoded

2019-01-15 17:54 METAR KAVP 152254Z 14003KT 9SM FEW031 M04/M08 A3009 RMK AO2 SLP202 T10391078 =
2019-01-15 16:54 METAR KAVP 152154Z 00000KT 9SM CLR M02/M08 A3008 RMK AO2 SLP199 T10171078 =
2019-01-15 15:54 METAR KAVP 152054Z 00000KT 9SM CLR M01/M08 A3009 RMK AO2 SLP201 T10061078 56008
                 =
2019-01-15 14:54 METAR KAVP 151954Z 35008KT 9SM FEW028 M01/M08 A3010 RMK AO2 SLP203 T10111083 =
2019-01-15 14:22 METAR KAVP 151922Z 35009KT 9SM FEW026 M02/M08 A3010 RMK AO2 T10171083 =
2019-01-15 13:54 METAR KAVP 151854Z 33006KT 9SM OVC026 M01/M08 A3010 RMK AO2 SLP205 T10061078 =
2019-01-15 12:54 METAR KAVP 151754Z 33008KT 9SM OVC025 M02/M08 A3011 RMK AO2 SLP209 T10171078
                 11017 21072 58024 =
2019-01-15 11:54 METAR KAVP 151654Z 28005KT 7SM OVC027 M02/M07 A3014 RMK AO2 SLP220 T10221072 =
2019-01-15 10:54 METAR KAVP 151554Z 00000KT 7SM OVC027 M04/M08 A3017 RMK AO2 SLP230 T10391078 =
2019-01-15 09:54 METAR KAVP 151454Z 00000KT 5SM HZ OVC020 M05/M08 A3019 RMK AO2 SLP235 T10501078
                 53016 =
2019-01-15 08:54 METAR KAVP 151354Z 24003KT 6SM BR OVC019 M07/M09 A3017 RMK AO2 SLP229 T10671089
                 =
2019-01-15 07:54 METAR KAVP 151254Z 21003KT 8SM OVC017 M07/M10 A3015 RMK AO2 SLP223 T10721100 =
2019-01-15 06:54 METAR KAVP 151154Z 00000KT 8SM OVC017 M07/M10 A3014 RMK AO2 SLP218 T10721100
                 11067 21100 51006 =
2019-01-15 05:54 METAR KAVP 151054Z 06003KT 9SM BKN018 M07/M09 A3013 RMK AO2 SLP216 T10671094 =
2019-01-15 05:51 METAR KAVP 151051Z 05003KT 9SM BKN018 M07/M09 A3013 RMK AO2 =
2019-01-15 04:54 METAR KAVP 150954Z 00000KT 9SM CLR M09/M12 A3012 RMK AO2 SLP212 T10891117 =
2019-01-15 03:54 METAR KAVP 150854Z AUTO 19004KT 9SM CLR M10/M12 A3013 RMK AO2 SLP214 T11001122
                 50004 =
2019-01-15 02:54 METAR KAVP 150754Z AUTO 00000KT 10SM CLR M09/M12 A3013 RMK AO2 SLP215 T10941122
                 =
2019-01-15 01:54 METAR KAVP 150654Z AUTO 00000KT 10SM CLR M09/M12 A3012 RMK AO2 SLP212 T10891117
                 =
2019-01-15 00:54 METAR KAVP 150554Z 00000KT 10SM CLR M08/M12 A3011 RMK AO2 SLP209 T10781122 11039
                 21083 58007 =
2019-01-14 23:54 METAR KAVP 150454Z 11003KT 10SM CLR M08/M12 A3012 RMK AO2 SLP213 T10831117
                 400001128 =
2019-01-14 22:54 METAR KAVP 150354Z 00000KT 10SM CLR M08/M12 A3014 RMK AO2 SLP219 T10781117 =
2019-01-14 21:54 METAR KAVP 150254Z 00000KT 10SM CLR M07/M12 A3014 RMK AO2 SLP219 T10721117 56003
                 =
2019-01-14 20:54 METAR KAVP 150154Z 00000KT 10SM CLR M06/M11 A3014 RMK AO2 SLP219 T10611111 =
2019-01-14 19:54 METAR KAVP 150054Z 00000KT 10SM CLR M05/M12 A3014 RMK AO2 SLP221 T10501117 =
2019-01-14 18:54 METAR KAVP 142354Z 00000KT 10SM CLR M04/M12 A3015 RMK AO2 SLP223 T10441117 10000
                 21044 53001 =

Support USWX by starting your Amazon purchase here.